sensor_id;sensor_type;location;lat;lon;timestamp;pressure;altitude;pressure_sealevel;temperature;humidity
22241;BME280;11289;52.524;13.694;2023-02-17T00:00:55;101309.94;;;6.86;76.91
22241;BME280;11289;52.524;13.694;2023-02-17T00:03:22;101312.13;;;6.89;77.11
22241;BME280;11289;52.524;13.694;2023-02-17T00:05:47;101293.41;;;6.80;77.00
22241;BME280;11289;52.524;13.694;2023-02-17T00:08:13;101301.59;;;6.91;77.24
22241;BME280;11289;52.524;13.694;2023-02-17T00:10:38;101314.31;;;6.92;77.19
22241;BME280;11289;52.524;13.694;2023-02-17T00:13:04;101317.31;;;6.95;77.21
22241;BME280;11289;52.524;13.694;2023-02-17T00:15:29;101306.53;;;6.94;77.22
22241;BME280;11289;52.524;13.694;2023-02-17T00:17:54;101308.78;;;6.92;77.39
22241;BME280;11289;52.524;13.694;2023-02-17T00:20:20;101314.81;;;6.94;77.68
22241;BME280;11289;52.524;13.694;2023-02-17T00:22:45;101296.09;;;6.91;78.21
22241;BME280;11289;52.524;13.694;2023-02-17T00:25:10;101301.91;;;6.89;79.12
22241;BME280;11289;52.524;13.694;2023-02-17T00:27:36;101292.25;;;6.87;79.69
22241;BME280;11289;52.524;13.694;2023-02-17T00:30:02;101296.66;;;6.88;80.12
22241;BME280;11289;52.524;13.694;2023-02-17T00:32:27;101290.63;;;6.86;80.52
22241;BME280;11289;52.524;13.694;2023-02-17T00:34:52;101286.25;;;6.79;81.20
22241;BME280;11289;52.524;13.694;2023-02-17T00:37:20;101279.91;;;6.79;81.19
22241;BME280;11289;52.524;13.694;2023-02-17T00:39:45;101278.59;;;6.71;82.18
22241;BME280;11289;52.524;13.694;2023-02-17T00:42:11;101234.63;;;6.51;82.34
22241;BME280;11289;52.524;13.694;2023-02-17T00:44:36;101274.72;;;6.72;82.07
22241;BME280;11289;52.524;13.694;2023-02-17T00:47:02;101261.19;;;6.71;81.98
22241;BME280;11289;52.524;13.694;2023-02-17T00:49:27;101255.38;;;6.72;82.73
22241;BME280;11289;52.524;13.694;2023-02-17T00:51:53;101264.75;;;6.76;82.53
22241;BME280;11289;52.524;13.694;2023-02-17T00:54:18;101246.09;;;6.63;82.60
22241;BME280;11289;52.524;13.694;2023-02-17T00:56:44;101261.16;;;6.76;82.64
22241;BME280;11289;52.524;13.694;2023-02-17T00:59:11;101253.47;;;6.73;83.00
22241;BME280;11289;52.524;13.694;2023-02-17T01:01:37;101246.06;;;6.68;82.81
22241;BME280;11289;52.524;13.694;2023-02-17T01:04:03;101242.75;;;6.66;83.08
22241;BME280;11289;52.524;13.694;2023-02-17T01:06:34;101256.53;;;6.71;83.50
22241;BME280;11289;52.524;13.694;2023-02-17T01:09:00;101241.94;;;6.66;83.55
22241;BME280;11289;52.524;13.694;2023-02-17T01:11:28;101242.16;;;6.69;83.20
22241;BME280;11289;52.524;13.694;2023-02-17T01:13:54;101244.13;;;6.69;83.45
22241;BME280;11289;52.524;13.694;2023-02-17T01:16:26;101237.50;;;6.70;83.65
22241;BME280;11289;52.524;13.694;2023-02-17T01:18:52;101219.59;;;6.62;83.76
22241;BME280;11289;52.524;13.694;2023-02-17T01:21:19;101218.78;;;6.61;83.57
22241;BME280;11289;52.524;13.694;2023-02-17T01:23:47;101228.94;;;6.66;84.01
22241;BME280;11289;52.524;13.694;2023-02-17T01:26:14;101217.91;;;6.66;84.03
22241;BME280;11289;52.524;13.694;2023-02-17T01:28:40;101204.13;;;6.66;84.13
22241;BME280;11289;52.524;13.694;2023-02-17T01:31:07;101198.38;;;6.62;84.40
22241;BME280;11289;52.524;13.694;2023-02-17T01:33:32;101196.97;;;6.65;84.20
22241;BME280;11289;52.524;13.694;2023-02-17T01:36:02;101190.63;;;6.65;84.70
22241;BME280;11289;52.524;13.694;2023-02-17T01:38:27;101182.13;;;6.56;84.54
22241;BME280;11289;52.524;13.694;2023-02-17T01:40:53;101190.69;;;6.59;84.31
22241;BME280;11289;52.524;13.694;2023-02-17T01:43:19;101170.59;;;6.54;84.57
22241;BME280;11289;52.524;13.694;2023-02-17T01:45:58;101195.03;;;6.66;84.40
22241;BME280;11289;52.524;13.694;2023-02-17T01:48:28;101189.81;;;6.64;84.29
22241;BME280;11289;52.524;13.694;2023-02-17T01:51:04;101182.69;;;6.58;84.62
22241;BME280;11289;52.524;13.694;2023-02-17T01:53:36;101180.44;;;6.60;84.66
22241;BME280;11289;52.524;13.694;2023-02-17T01:56:04;101183.69;;;6.67;84.90
22241;BME280;11289;52.524;13.694;2023-02-17T01:58:30;101145.50;;;6.50;84.97
22241;BME280;11289;52.524;13.694;2023-02-17T02:00:59;101171.38;;;6.59;85.02
22241;BME280;11289;52.524;13.694;2023-02-17T02:03:27;101159.59;;;6.49;85.14
22241;BME280;11289;52.524;13.694;2023-02-17T02:05:55;101169.72;;;6.58;85.08
22241;BME280;11289;52.524;13.694;2023-02-17T02:08:21;101161.94;;;6.60;85.67
22241;BME280;11289;52.524;13.694;2023-02-17T02:10:46;101162.78;;;6.61;85.24
22241;BME280;11289;52.524;13.694;2023-02-17T02:13:12;101163.31;;;6.63;85.18
22241;BME280;11289;52.524;13.694;2023-02-17T02:15:52;101120.19;;;6.43;85.60
22241;BME280;11289;52.524;13.694;2023-02-17T02:21:34;101152.81;;;6.65;86.05
22241;BME280;11289;52.524;13.694;2023-02-17T02:24:22;101139.06;;;6.60;86.00
22241;BME280;11289;52.524;13.694;2023-02-17T02:33:18;101127.44;;;6.63;86.95
22241;BME280;11289;52.524;13.694;2023-02-17T02:35:25;101117.28;;;6.58;87.48
22241;BME280;11289;52.524;13.694;2023-02-17T02:38:24;101113.41;;;6.59;87.66
22241;BME280;11289;52.524;13.694;2023-02-17T02:40:56;101093.03;;;6.55;88.05
22241;BME280;11289;52.524;13.694;2023-02-17T02:43:25;101099.38;;;6.56;88.75
22241;BME280;11289;52.524;13.694;2023-02-17T02:45:50;101098.56;;;6.55;88.88
22241;BME280;11289;52.524;13.694;2023-02-17T02:48:16;101090.91;;;6.47;88.70
22241;BME280;11289;52.524;13.694;2023-02-17T03:02:39;101075.75;;;6.44;90.60
22241;BME280;11289;52.524;13.694;2023-02-17T03:05:35;101071.94;;;6.40;91.25
22241;BME280;11289;52.524;13.694;2023-02-17T03:08:13;101064.78;;;6.39;91.12
22241;BME280;11289;52.524;13.694;2023-02-17T03:10:47;101054.63;;;6.35;91.82
22241;BME280;11289;52.524;13.694;2023-02-17T03:13:14;101055.19;;;6.32;91.65
22241;BME280;11289;52.524;13.694;2023-02-17T03:15:39;101057.69;;;6.33;91.71
22241;BME280;11289;52.524;13.694;2023-02-17T03:18:05;101057.09;;;6.36;91.75
22241;BME280;11289;52.524;13.694;2023-02-17T03:20:37;101058.44;;;6.39;92.12
22241;BME280;11289;52.524;13.694;2023-02-17T03:23:04;101042.19;;;6.37;91.45
22241;BME280;11289;52.524;13.694;2023-02-17T03:25:29;101033.38;;;6.35;91.81
22241;BME280;11289;52.524;13.694;2023-02-17T03:27:55;101035.34;;;6.35;91.75
22241;BME280;11289;52.524;13.694;2023-02-17T03:30:20;101021.59;;;6.30;91.37
22241;BME280;11289;52.524;13.694;2023-02-17T03:32:46;101037.25;;;6.34;91.86
22241;BME280;11289;52.524;13.694;2023-02-17T03:35:12;101041.06;;;6.38;92.21
22241;BME280;11289;52.524;13.694;2023-02-17T03:37:37;101043.84;;;6.38;92.77
22241;BME280;11289;52.524;13.694;2023-02-17T03:40:04;101050.44;;;6.37;92.93
22241;BME280;11289;52.524;13.694;2023-02-17T03:42:30;101023.81;;;6.27;92.70
22241;BME280;11289;52.524;13.694;2023-02-17T03:44:56;101036.94;;;6.36;92.92
22241;BME280;11289;52.524;13.694;2023-02-17T03:47:21;101040.56;;;6.36;92.77
22241;BME280;11289;52.524;13.694;2023-02-17T03:49:46;101035.84;;;6.37;92.68
22241;BME280;11289;52.524;13.694;2023-02-17T03:52:15;101032.50;;;6.40;92.19
22241;BME280;11289;52.524;13.694;2023-02-17T03:54:40;101021.59;;;6.30;92.48
22241;BME280;11289;52.524;13.694;2023-02-17T03:57:06;101022.09;;;6.32;93.01
22241;BME280;11289;52.524;13.694;2023-02-17T03:59:31;101018.25;;;6.33;92.94
22241;BME280;11289;52.524;13.694;2023-02-17T04:01:56;101022.94;;;6.32;92.79
22241;BME280;11289;52.524;13.694;2023-02-17T04:04:22;101015.00;;;6.25;93.13
22241;BME280;11289;52.524;13.694;2023-02-17T04:06:47;101018.25;;;6.33;93.29
22241;BME280;11289;52.524;13.694;2023-02-17T04:09:13;101016.59;;;6.32;93.05
22241;BME280;11289;52.524;13.694;2023-02-17T04:11:38;101016.03;;;6.35;93.19
22241;BME280;11289;52.524;13.694;2023-02-17T04:14:04;101016.03;;;6.35;94.21
22241;BME280;11289;52.524;13.694;2023-02-17T04:16:29;101011.91;;;6.32;94.00
22241;BME280;11289;52.524;13.694;2023-02-17T04:18:55;101009.16;;;6.32;94.00
22241;BME280;11289;52.524;13.694;2023-02-17T04:21:20;101008.06;;;6.33;94.01
22241;BME280;11289;52.524;13.694;2023-02-17T04:23:45;100996.00;;;6.24;93.85
22241;BME280;11289;52.524;13.694;2023-02-17T04:26:11;100976.47;;;6.20;93.77
22241;BME280;11289;52.524;13.694;2023-02-17T04:28:37;100994.78;;;6.35;94.21
22241;BME280;11289;52.524;13.694;2023-02-17T04:31:03;100988.75;;;6.33;93.83
22241;BME280;11289;52.524;13.694;2023-02-17T04:33:29;100991.72;;;6.37;94.39
22241;BME280;11289;52.524;13.694;2023-02-17T04:35:55;100990.06;;;6.36;94.28
22241;BME280;11289;52.524;13.694;2023-02-17T04:38:25;100992.50;;;6.42;94.15
22241;BME280;11289;52.524;13.694;2023-02-17T04:40:52;100994.44;;;6.42;94.57
22241;BME280;11289;52.524;13.694;2023-02-17T04:43:18;100986.72;;;6.39;94.71
22241;BME280;11289;52.524;13.694;2023-02-17T04:45:43;100990.84;;;6.41;94.78
22241;BME280;11289;52.524;13.694;2023-02-17T04:48:09;100993.28;;;6.43;94.73
22241;BME280;11289;52.524;13.694;2023-02-17T04:50:34;100985.91;;;6.38;94.84
22241;BME280;11289;52.524;13.694;2023-02-17T04:52:59;100983.75;;;6.35;94.76
22241;BME280;11289;52.524;13.694;2023-02-17T04:55:25;100992.78;;;6.41;95.12
22241;BME280;11289;52.524;13.694;2023-02-17T04:57:50;100983.09;;;6.43;95.66
22241;BME280;11289;52.524;13.694;2023-02-17T05:00:15;100974.28;;;6.41;95.06
22241;BME280;11289;52.524;13.694;2023-02-17T05:02:41;100974.84;;;6.43;95.38
22241;BME280;11289;52.524;13.694;2023-02-17T05:05:06;100962.75;;;6.39;95.47
22241;BME280;11289;52.524;13.694;2023-02-17T05:07:32;100954.97;;;6.41;95.52
22241;BME280;11289;52.524;13.694;2023-02-17T05:09:57;100957.75;;;6.41;95.85
22241;BME280;11289;52.524;13.694;2023-02-17T05:12:23;100961.34;;;6.42;96.01
22241;BME280;11289;52.524;13.694;2023-02-17T05:14:48;100960.78;;;6.40;95.99
22241;BME280;11289;52.524;13.694;2023-02-17T05:17:14;100962.16;;;6.42;95.87
22241;BME280;11289;52.524;13.694;2023-02-17T05:19:39;100919.84;;;6.28;96.26
22241;BME280;11289;52.524;13.694;2023-02-17T05:22:04;100932.91;;;6.41;96.47
22241;BME280;11289;52.524;13.694;2023-02-17T05:24:30;100934.56;;;6.42;96.14
22241;BME280;11289;52.524;13.694;2023-02-17T05:26:55;100948.88;;;6.44;96.41
22241;BME280;11289;52.524;13.694;2023-02-17T05:29:21;100940.06;;;6.42;96.32
22241;BME280;11289;52.524;13.694;2023-02-17T05:31:47;100942.75;;;6.48;96.48
22241;BME280;11289;52.524;13.694;2023-02-17T05:34:12;100921.88;;;6.41;96.78
22241;BME280;11289;52.524;13.694;2023-02-17T05:36:38;100929.03;;;6.42;96.61
22241;BME280;11289;52.524;13.694;2023-02-17T05:39:03;100945.47;;;6.53;96.75
22241;BME280;11289;52.524;13.694;2023-02-17T05:41:28;100932.25;;;6.50;96.56
22241;BME280;11289;52.524;13.694;2023-02-17T05:43:54;100935.03;;;6.50;96.72
22241;BME280;11289;52.524;13.694;2023-02-17T05:46:19;100930.56;;;6.54;96.75
22241;BME280;11289;52.524;13.694;2023-02-17T05:48:47;100935.25;;;6.53;96.98
22241;BME280;11289;52.524;13.694;2023-02-17T05:51:12;100928.41;;;6.51;96.97
22241;BME280;11289;52.524;13.694;2023-02-17T05:53:41;100928.09;;;6.52;96.97
22241;BME280;11289;52.524;13.694;2023-02-17T05:56:06;100936.59;;;6.56;97.27
22241;BME280;11289;52.524;13.694;2023-02-17T05:58:32;100921.75;;;6.52;96.87
22241;BME280;11289;52.524;13.694;2023-02-17T06:00:57;100916.31;;;6.47;97.08
22241;BME280;11289;52.524;13.694;2023-02-17T06:03:22;100928.09;;;6.52;97.06
22241;BME280;11289;52.524;13.694;2023-02-17T06:05:48;100931.38;;;6.54;97.33
22241;BME280;11289;52.524;13.694;2023-02-17T06:08:13;100937.13;;;6.58;97.63
22241;BME280;11289;52.524;13.694;2023-02-17T06:10:40;100912.34;;;6.53;97.24
22241;BME280;11289;52.524;13.694;2023-02-17T06:13:06;100912.34;;;6.53;97.65
22241;BME280;11289;52.524;13.694;2023-02-17T06:15:31;100913.41;;;6.57;97.44
22241;BME280;11289;52.524;13.694;2023-02-17T06:17:58;100928.56;;;6.59;98.07
22241;BME280;11289;52.524;13.694;2023-02-17T06:20:23;100922.19;;;6.59;97.67
22241;BME280;11289;52.524;13.694;2023-02-17T06:22:49;100915.56;;;6.60;97.60
22241;BME280;11289;52.524;13.694;2023-02-17T06:25:14;100888.66;;;6.52;97.26
22241;BME280;11289;52.524;13.694;2023-02-17T06:27:39;100903.50;;;6.56;97.50
22241;BME280;11289;52.524;13.694;2023-02-17T06:30:07;100908.09;;;6.60;97.29
22241;BME280;11289;52.524;13.694;2023-02-17T06:32:32;100903.78;;;6.54;97.39
22241;BME280;11289;52.524;13.694;2023-02-17T06:34:58;100906.19;;;6.61;97.23
22241;BME280;11289;52.524;13.694;2023-02-17T06:37:24;100904.03;;;6.58;97.37
22241;BME280;11289;52.524;13.694;2023-02-17T06:39:49;100902.06;;;6.58;97.42
22241;BME280;11289;52.524;13.694;2023-02-17T06:42:15;100902.06;;;6.58;97.43
22241;BME280;11289;52.524;13.694;2023-02-17T06:44:40;100906.19;;;6.61;97.18
22241;BME280;11289;52.524;13.694;2023-02-17T06:47:05;100903.72;;;6.59;97.37
22241;BME280;11289;52.524;13.694;2023-02-17T06:49:31;100900.97;;;6.59;97.13
22241;BME280;11289;52.524;13.694;2023-02-17T06:51:56;100897.38;;;6.59;97.51
22241;BME280;11289;52.524;13.694;2023-02-17T06:54:22;100897.38;;;6.59;97.13
22241;BME280;11289;52.524;13.694;2023-02-17T06:56:47;100896.25;;;6.60;97.46
22241;BME280;11289;52.524;13.694;2023-02-17T06:59:12;100887.97;;;6.60;97.18
22241;BME280;11289;52.524;13.694;2023-02-17T07:01:38;100886.88;;;6.61;97.07
22241;BME280;11289;52.524;13.694;2023-02-17T07:04:03;100884.13;;;6.61;96.99
22241;BME280;11289;52.524;13.694;2023-02-17T07:06:29;100885.16;;;6.65;97.27
22241;BME280;11289;52.524;13.694;2023-02-17T07:08:54;100877.47;;;6.62;97.46
22241;BME280;11289;52.524;13.694;2023-02-17T07:11:20;100886.19;;;6.69;97.45
22241;BME280;11289;52.524;13.694;2023-02-17T07:13:45;100875.16;;;6.69;97.22
22241;BME280;11289;52.524;13.694;2023-02-17T07:16:12;100867.41;;;6.71;97.45
22241;BME280;11289;52.524;13.694;2023-02-17T07:18:38;100858.00;;;6.72;97.47
22241;BME280;11289;52.524;13.694;2023-02-17T07:21:05;100857.72;;;6.74;97.57
22241;BME280;11289;52.524;13.694;2023-02-17T07:23:30;100862.69;;;6.72;97.45
22241;BME280;11289;52.524;13.694;2023-02-17T07:26:00;100865.69;;;6.75;97.62
22241;BME280;11289;52.524;13.694;2023-02-17T07:28:26;100864.56;;;6.76;97.35
22241;BME280;11289;52.524;13.694;2023-02-17T07:30:51;100866.66;;;6.85;97.60
22241;BME280;11289;52.524;13.694;2023-02-17T07:33:16;100869.13;;;6.86;97.36
22241;BME280;11289;52.524;13.694;2023-02-17T07:35:42;100864.69;;;6.85;97.66
22241;BME280;11289;52.524;13.694;2023-02-17T07:38:10;100868.75;;;6.93;97.31
22241;BME280;11289;52.524;13.694;2023-02-17T07:40:36;100866.78;;;6.93;97.49
22241;BME280;11289;52.524;13.694;2023-02-17T07:43:02;100867.00;;;6.97;97.74
22241;BME280;11289;52.524;13.694;2023-02-17T07:45:28;100856.19;;;7.01;97.53
22241;BME280;11289;52.524;13.694;2023-02-17T07:47:53;100859.75;;;7.01;97.54
22241;BME280;11289;52.524;13.694;2023-02-17T07:50:19;100852.81;;;7.04;97.36
22241;BME280;11289;52.524;13.694;2023-02-17T07:52:44;100849.75;;;7.05;97.63
22241;BME280;11289;52.524;13.694;2023-02-17T07:55:09;100856.53;;;7.13;97.51
22241;BME280;11289;52.524;13.694;2023-02-17T07:57:35;100850.13;;;7.18;97.73
22241;BME280;11289;52.524;13.694;2023-02-17T08:00:00;100846.22;;;7.19;97.44
22241;BME280;11289;52.524;13.694;2023-02-17T08:02:26;100850.88;;;7.23;97.50
22241;BME280;11289;52.524;13.694;2023-02-17T08:04:51;100844.00;;;7.21;97.60
22241;BME280;11289;52.524;13.694;2023-02-17T08:07:17;100838.91;;;7.28;97.44
22241;BME280;11289;52.524;13.694;2023-02-17T08:09:42;100830.63;;;7.28;97.19
22241;BME280;11289;52.524;13.694;2023-02-17T08:12:26;100837.19;;;7.32;97.46
22241;BME280;11289;52.524;13.694;2023-02-17T08:15:11;100844.25;;;7.38;97.41
22241;BME280;11289;52.524;13.694;2023-02-17T08:17:37;100849.47;;;7.40;97.23
22241;BME280;11289;52.524;13.694;2023-02-17T08:20:05;100846.41;;;7.41;97.00
22241;BME280;11289;52.524;13.694;2023-02-17T08:22:31;100855.09;;;7.48;96.98
22241;BME280;11289;52.524;13.694;2023-02-17T08:24:56;100841.91;;;7.45;96.92
22241;BME280;11289;52.524;13.694;2023-02-17T08:27:21;100814.25;;;7.31;96.69
22241;BME280;11289;52.524;13.694;2023-02-17T08:29:47;100837.72;;;7.48;96.34
22241;BME280;11289;52.524;13.694;2023-02-17T08:32:14;100849.38;;;7.59;96.72
22241;BME280;11289;52.524;13.694;2023-02-17T08:34:39;100848.34;;;7.55;96.54
22241;BME280;11289;52.524;13.694;2023-02-17T08:37:05;100839.69;;;7.61;96.45
22241;BME280;11289;52.524;13.694;2023-02-17T08:39:32;100829.13;;;7.63;96.06
22241;BME280;11289;52.524;13.694;2023-02-17T08:41:57;100813.84;;;7.52;96.73
22241;BME280;11289;52.524;13.694;2023-02-17T08:44:23;100825.44;;;7.68;96.82
22241;BME280;11289;52.524;13.694;2023-02-17T08:46:50;100819.41;;;7.66;96.66
22241;BME280;11289;52.524;13.694;2023-02-17T08:49:18;100815.84;;;7.65;96.51
22241;BME280;11289;52.524;13.694;2023-02-17T08:51:44;100821.97;;;7.76;96.78
22241;BME280;11289;52.524;13.694;2023-02-17T08:54:11;100818.09;;;7.77;96.70
22241;BME280;11289;52.524;13.694;2023-02-17T08:56:38;100821.88;;;7.81;96.89
22241;BME280;11289;52.524;13.694;2023-02-17T08:59:05;100818.81;;;7.83;96.32
22241;BME280;11289;52.524;13.694;2023-02-17T09:01:31;100808.66;;;7.78;96.63
22241;BME280;11289;52.524;13.694;2023-02-17T09:03:58;100810.22;;;7.84;96.80
22241;BME280;11289;52.524;13.694;2023-02-17T09:06:40;100802.09;;;7.88;96.97
22241;BME280;11289;52.524;13.694;2023-02-17T09:09:07;100781.84;;;7.79;96.90
22241;BME280;11289;52.524;13.694;2023-02-17T09:11:33;100795.16;;;7.91;97.27
22241;BME280;11289;52.524;13.694;2023-02-17T09:13:59;100775.31;;;7.89;97.23
22241;BME280;11289;52.524;13.694;2023-02-17T09:16:24;100764.03;;;7.85;97.26
22241;BME280;11289;52.524;13.694;2023-02-17T09:18:51;100768.13;;;7.88;97.48
22241;BME280;11289;52.524;13.694;2023-02-17T09:21:17;100765.22;;;7.93;97.35
22241;BME280;11289;52.524;13.694;2023-02-17T09:23:44;100759.59;;;7.98;97.38
22241;BME280;11289;52.524;13.694;2023-02-17T09:26:11;100759.28;;;7.99;97.61
22241;BME280;11289;52.524;13.694;2023-02-17T09:28:38;100751.50;;;8.01;97.65
22241;BME280;11289;52.524;13.694;2023-02-17T09:31:24;100746.50;;;8.04;97.76
22241;BME280;11289;52.524;13.694;2023-02-17T09:33:50;100752.81;;;8.04;97.78
22241;BME280;11289;52.524;13.694;2023-02-17T09:36:20;100737.66;;;8.01;97.72
22241;BME280;11289;52.524;13.694;2023-02-17T09:38:47;100745.38;;;8.05;98.13
22241;BME280;11289;52.524;13.694;2023-02-17T09:41:23;100745.06;;;8.06;98.11
22241;BME280;11289;52.524;13.694;2023-02-17T09:43:50;100727.31;;;8.07;98.06
22241;BME280;11289;52.524;13.694;2023-02-17T09:46:34;100729.47;;;8.10;98.35
22241;BME280;11289;52.524;13.694;2023-02-17T09:49:21;100718.72;;;8.09;98.30
22241;BME280;11289;52.524;13.694;2023-02-17T09:54:34;100712.75;;;8.15;98.94
22241;BME280;11289;52.524;13.694;2023-02-17T09:57:02;100687.00;;;8.06;98.76
22241;BME280;11289;52.524;13.694;2023-02-17T09:59:44;100698.94;;;8.15;98.80
22241;BME280;11289;52.524;13.694;2023-02-17T10:02:18;100699.75;;;8.16;98.98
22241;BME280;11289;52.524;13.694;2023-02-17T10:04:48;100693.09;;;8.17;98.88
22241;BME280;11289;52.524;13.694;2023-02-17T10:07:40;100702.09;;;8.23;98.90
22241;BME280;11289;52.524;13.694;2023-02-17T10:10:10;100705.16;;;8.21;98.75
22241;BME280;11289;52.524;13.694;2023-02-17T10:12:43;100701.78;;;8.24;99.09
22241;BME280;11289;52.524;13.694;2023-02-17T10:15:25;100684.06;;;8.25;99.15
22241;BME280;11289;52.524;13.694;2023-02-17T10:18:03;100698.69;;;8.26;99.03
22241;BME280;11289;52.524;13.694;2023-02-17T10:20:36;100684.38;;;8.24;99.00
22241;BME280;11289;52.524;13.694;2023-02-17T10:23:20;100687.13;;;8.24;99.50
22241;BME280;11289;52.524;13.694;2023-02-17T10:26:11;100672.78;;;8.22;99.34
22241;BME280;11289;52.524;13.694;2023-02-17T10:28:48;100667.25;;;8.22;99.42
22241;BME280;11289;52.524;13.694;2023-02-17T10:31:22;100659.91;;;8.17;99.78
22241;BME280;11289;52.524;13.694;2023-02-17T10:39:46;100629.78;;;8.15;100.00
22241;BME280;11289;52.524;13.694;2023-02-17T10:42:20;100643.19;;;8.22;99.90
22241;BME280;11289;52.524;13.694;2023-02-17T10:44:50;100624.16;;;8.21;100.00
22241;BME280;11289;52.524;13.694;2023-02-17T10:47:18;100608.69;;;8.19;100.00
22241;BME280;11289;52.524;13.694;2023-02-17T10:49:47;100616.03;;;8.24;100.00
22241;BME280;11289;52.524;13.694;2023-02-17T10:52:20;100620.75;;;8.24;100.00
22241;BME280;11289;52.524;13.694;2023-02-17T10:54:53;100606.91;;;8.24;100.00
22241;BME280;11289;52.524;13.694;2023-02-17T10:57:22;100591.75;;;8.21;100.00
22241;BME280;11289;52.524;13.694;2023-02-17T10:59:48;100590.81;;;8.26;100.00
22241;BME280;11289;52.524;13.694;2023-02-17T11:02:39;100591.00;;;8.29;100.00
22241;BME280;11289;52.524;13.694;2023-02-17T11:05:05;100578.63;;;8.27;100.00
22241;BME280;11289;52.524;13.694;2023-02-17T11:07:34;100578.47;;;8.32;100.00
22241;BME280;11289;52.524;13.694;2023-02-17T11:10:17;100582.41;;;8.31;100.00
22241;BME280;11289;52.524;13.694;2023-02-17T11:12:43;100572.13;;;8.31;100.00
22241;BME280;11289;52.524;13.694;2023-02-17T11:15:17;100557.56;;;8.40;100.00
22241;BME280;11289;52.524;13.694;2023-02-17T11:17:44;100550.69;;;8.37;100.00
22241;BME280;11289;52.524;13.694;2023-02-17T11:22:44;100528.00;;;8.49;100.00
22241;BME280;11289;52.524;13.694;2023-02-17T11:25:25;100524.09;;;8.50;100.00
22241;BME280;11289;52.524;13.694;2023-02-17T11:27:53;100524.91;;;8.50;99.97
22241;BME280;11289;52.524;13.694;2023-02-17T11:30:21;100512.88;;;8.55;99.88
22241;BME280;11289;52.524;13.694;2023-02-17T11:32:47;100506.22;;;8.56;99.90
22241;BME280;11289;52.524;13.694;2023-02-17T11:35:23;100502.00;;;8.59;99.76
22241;BME280;11289;52.524;13.694;2023-02-17T11:37:49;100497.78;;;8.61;99.64
22241;BME280;11289;52.524;13.694;2023-02-17T11:40:25;100490.75;;;8.64;99.74
22241;BME280;11289;52.524;13.694;2023-02-17T11:43:00;100494.69;;;8.63;99.36
22241;BME280;11289;52.524;13.694;2023-02-17T11:54:42;100446.84;;;8.80;99.41
22241;BME280;11289;52.524;13.694;2023-02-17T11:56:46;100433.84;;;8.80;99.06
22241;BME280;11289;52.524;13.694;2023-02-17T12:01:48;100422.78;;;8.89;98.66
22241;BME280;11289;52.524;13.694;2023-02-17T12:04:24;100412.97;;;8.92;98.62
22241;BME280;11289;52.524;13.694;2023-02-17T12:13:02;100398.34;;;9.00;97.91
22241;BME280;11289;52.524;13.694;2023-02-17T12:15:48;100414.31;;;9.03;97.92
22241;BME280;11289;52.524;13.694;2023-02-17T12:24:12;100382.38;;;9.14;97.38
22241;BME280;11289;52.524;13.694;2023-02-17T12:26:47;100371.47;;;9.18;96.77
22241;BME280;11289;52.524;13.694;2023-02-17T12:34:29;100351.09;;;9.22;96.41
22241;BME280;11289;52.524;13.694;2023-02-17T12:36:56;100348.47;;;9.26;95.88
22241;BME280;11289;52.524;13.694;2023-02-17T12:39:34;100353.53;;;9.33;95.83
22241;BME280;11289;52.524;13.694;2023-02-17T12:42:41;100335.56;;;9.39;95.53
22241;BME280;11289;52.524;13.694;2023-02-17T12:45:21;100332.81;;;9.39;95.55
22241;BME280;11289;52.524;13.694;2023-02-17T12:48:01;100345.84;;;9.47;95.10
22241;BME280;11289;52.524;13.694;2023-02-17T12:50:34;100335.72;;;9.51;95.00
22241;BME280;11289;52.524;13.694;2023-02-17T12:53:04;100331.13;;;9.55;95.11
22241;BME280;11289;52.524;13.694;2023-02-17T12:55:43;100324.94;;;9.58;95.07
22241;BME280;11289;52.524;13.694;2023-02-17T12:58:19;100333.56;;;9.66;94.75
22241;BME280;11289;52.524;13.694;2023-02-17T13:01:09;100332.56;;;9.70;94.04
22241;BME280;11289;52.524;13.694;2023-02-17T13:03:35;100313.28;;;9.74;93.54
22241;BME280;11289;52.524;13.694;2023-02-17T13:08:44;100323.88;;;9.81;92.77
22241;BME280;11289;52.524;13.694;2023-02-17T13:11:27;100338.84;;;9.88;92.36
22241;BME280;11289;52.524;13.694;2023-02-17T13:13:52;100321.22;;;9.84;92.38
22241;BME280;11289;52.524;13.694;2023-02-17T13:16:18;100315.50;;;9.89;91.82
22241;BME280;11289;52.524;13.694;2023-02-17T13:18:46;100310.25;;;9.97;92.05
22241;BME280;11289;52.524;13.694;2023-02-17T13:24:11;100305.47;;;10.06;92.58
22241;BME280;11289;52.524;13.694;2023-02-17T13:26:39;100288.97;;;10.09;92.20
22241;BME280;11289;52.524;13.694;2023-02-17T13:34:44;100291.03;;;10.21;91.21
22241;BME280;11289;52.524;13.694;2023-02-17T13:42:52;100271.72;;;10.34;90.69
22241;BME280;11289;52.524;13.694;2023-02-17T13:47:44;100278.75;;;10.52;89.96
22241;BME280;11289;52.524;13.694;2023-02-17T13:50:32;100276.94;;;10.56;89.82
22241;BME280;11289;52.524;13.694;2023-02-17T13:52:59;100275.56;;;10.62;89.34
22241;BME280;11289;52.524;13.694;2023-02-17T13:55:24;100277.53;;;10.62;89.35
22241;BME280;11289;52.524;13.694;2023-02-17T13:57:59;100275.38;;;10.68;89.04
22241;BME280;11289;52.524;13.694;2023-02-17T14:00:32;100257.09;;;10.67;89.16
22241;BME280;11289;52.524;13.694;2023-02-17T14:03:04;100259.97;;;10.70;88.75
22241;BME280;11289;52.524;13.694;2023-02-17T14:05:39;100264.38;;;10.71;88.87
22241;BME280;11289;52.524;13.694;2023-02-17T14:08:27;100271.69;;;10.76;88.94
22241;BME280;11289;52.524;13.694;2023-02-17T14:10:54;100277.41;;;10.79;89.14
22241;BME280;11289;52.524;13.694;2023-02-17T14:13:21;100276.72;;;10.83;88.07
22241;BME280;11289;52.524;13.694;2023-02-17T14:15:55;100275.34;;;10.89;88.21